Shreveport Regional Airport
KSHV : now visible

Airfield :











YOU CAN JOIN US ON...

 
LOGIN :

Register | Disclaimer

   EN    FR    IT 

 









Legend :    VFR   Marginal VFR   IFR   Intensive IFR   Very Intensive IFR
Visi :
Ceiling :
>= 8 km
>= 3000ft
5 to 8 km
1000 to 3000 ft
1500m to 5 km
500 to 1000 ft
800 to 1500m
200 to 500 ft
< 800m
< 200 ft
Symbols :   Thunderstorms  Fog  Heavy snow  Heavy precipitations  Wind > 20 kt






- Airport Elevation : 258 ft
- IATA code : SHV


KSHV - Shreveport Regional

CURRENT METAR :
  • 071456Z 01004KT 10SM FEW240 BKN290 24/14 A3021 RMK AO2 SLP226 T02440144 51016

EXPIRED METARs :
  • 071356Z VRB04KT 10SM BKN270 21/14 A3020 RMK AO2 SLP223 T02060139
  • 071256Z 36005KT 10SM SCT270 17/13 A3018 RMK AO2 SLP216 T01720128

TAF KSHV
Valid from the 07 at 12:00 until the 08 at 12:00 UTC


071139Z 0712/0812 00000KT P6SM SCT270
FM071400 VRB03KT P6SM SCT250
FM071900 02007KT P6SM SCT250
FM080100 VRB03KT P6SM SCT250
FM081000 02006KT P6SM BKN250
KZFW FIR / North America



MET'MAP, your aeronautical weather chart ! - Copyright ORBIFLY December 2007 - Disclaimer

ORBIFLY MET'MAP TEAM :

Programming & Development : Alexandra Zaïnal
Original concept : Baudouin d'Aumeries
Technical & hardware support : Manuel Goepfert
Assistance : Marc-Olivier Méhu




SOURCES & CREDITS :

   NOAA       Earth
Advisory